createdAt,value
2023-04-09T00:01:38.429Z,2.88
2023-04-09T00:04:05.157Z,2.38
2023-04-09T00:06:31.784Z,2.50
2023-04-09T00:08:58.211Z,2.80
2023-04-09T00:11:24.653Z,2.28
2023-04-09T00:13:51.318Z,2.60
2023-04-09T00:16:17.788Z,2.45
2023-04-09T00:18:44.320Z,2.58
2023-04-09T00:21:11.219Z,2.00
2023-04-09T00:23:37.800Z,1.92
2023-04-09T00:26:04.513Z,2.22
2023-04-09T00:28:30.928Z,1.77
2023-04-09T00:30:57.471Z,2.08
2023-04-09T00:33:23.969Z,2.20
2023-04-09T00:35:54.680Z,2.17
2023-04-09T00:38:22.220Z,2.00
2023-04-09T00:40:50.620Z,1.90
2023-04-09T00:43:17.973Z,1.92
2023-04-09T00:45:45.476Z,1.30
2023-04-09T00:48:16.402Z,2.17
2023-04-09T00:50:43.186Z,1.80
2023-04-09T00:53:11.002Z,1.85
2023-04-09T00:55:40.334Z,1.77
2023-04-09T00:58:07.073Z,1.70
2023-04-09T01:00:33.546Z,1.70
2023-04-09T01:03:00.879Z,1.35
2023-04-09T01:05:34.311Z,1.65
2023-04-09T01:08:08.241Z,1.90
2023-04-09T01:10:42.832Z,1.70
2023-04-09T01:13:24.057Z,2.45
2023-04-09T01:16:00.728Z,1.65
2023-04-09T01:18:41.148Z,1.40
2023-04-09T01:21:27.504Z,1.80
2023-04-09T01:24:36.884Z,2.42
2023-04-09T01:27:08.332Z,1.80
2023-04-09T01:29:39.177Z,1.90
2023-04-09T01:32:07.845Z,1.92
2023-04-09T01:34:35.404Z,1.90
2023-04-09T01:37:03.731Z,1.80
2023-04-09T01:39:31.370Z,2.17
2023-04-09T01:41:57.994Z,1.50
2023-04-09T01:44:29.017Z,2.53
2023-04-09T01:46:57.460Z,1.77
2023-04-09T01:49:28.430Z,1.73
2023-04-09T01:51:56.482Z,2.00
2023-04-09T01:54:22.974Z,2.33
2023-04-09T01:56:49.486Z,1.77
2023-04-09T01:59:16.200Z,1.87
2023-04-09T02:01:47.154Z,2.60
2023-04-09T02:04:22.156Z,2.60
2023-04-09T02:06:52.668Z,2.13
2023-04-09T02:09:21.215Z,2.20
2023-04-09T02:11:49.887Z,1.90
2023-04-09T02:14:18.672Z,2.60
2023-04-09T02:16:46.488Z,2.30
2023-04-09T02:19:12.888Z,2.27
2023-04-09T02:21:39.413Z,2.63
2023-04-09T02:24:06.001Z,2.67
2023-04-09T02:26:32.484Z,3.20
2023-04-09T02:28:58.976Z,2.60
2023-04-09T02:31:26.403Z,3.83
2023-04-09T02:33:54.214Z,3.30
2023-04-09T02:36:23.419Z,2.90
2023-04-09T02:38:49.989Z,3.20
2023-04-09T02:41:16.658Z,2.63
2023-04-09T02:43:43.065Z,2.93
2023-04-09T02:46:09.552Z,2.43
2023-04-09T02:48:35.955Z,2.00
2023-04-09T02:51:05.528Z,2.13
2023-04-09T02:53:32.007Z,2.67
2023-04-09T02:56:01.247Z,2.77
2023-04-09T02:58:30.542Z,2.23
2023-04-09T03:00:59.627Z,2.30
2023-04-09T03:03:26.374Z,2.80
2023-04-09T03:05:53.922Z,2.90
2023-04-09T03:08:20.327Z,2.73
2023-04-09T03:10:46.767Z,2.67
2023-04-09T03:13:13.258Z,3.33
2023-04-09T03:15:39.833Z,2.50
2023-04-09T03:18:06.353Z,2.17
2023-04-09T03:20:32.877Z,3.37
2023-04-09T03:23:02.114Z,2.23
2023-04-09T03:25:30.610Z,2.10
2023-04-09T03:27:57.074Z,3.03
2023-04-09T03:30:23.573Z,2.80
2023-04-09T03:32:52.469Z,2.87
2023-04-09T03:35:18.958Z,2.60
2023-04-09T03:37:48.346Z,2.90
2023-04-09T03:40:14.919Z,2.70
2023-04-09T03:42:43.200Z,2.70
2023-04-09T03:45:09.868Z,2.60
2023-04-09T03:47:36.459Z,2.50
2023-04-09T03:50:03.357Z,2.40
2023-04-09T03:52:37.060Z,3.00
2023-04-09T03:55:04.648Z,2.70
2023-04-09T03:57:32.798Z,3.00
2023-04-09T03:59:59.240Z,3.27
2023-04-09T04:02:27.160Z,2.63
2023-04-09T04:04:53.895Z,3.20
2023-04-09T04:07:20.384Z,2.67
2023-04-09T04:09:46.900Z,3.20
2023-04-09T04:12:13.369Z,2.87
2023-04-09T04:14:39.803Z,3.70
2023-04-09T04:17:06.302Z,3.30
2023-04-09T04:19:34.186Z,3.27
2023-04-09T04:22:00.692Z,2.90
2023-04-09T04:24:27.134Z,2.90
2023-04-09T04:26:53.551Z,2.83
2023-04-09T04:29:20.073Z,2.83
2023-04-09T04:31:46.623Z,2.90
2023-04-09T04:34:13.265Z,2.83
2023-04-09T04:36:39.787Z,2.90
2023-04-09T04:39:06.219Z,2.90
2023-04-09T04:41:35.208Z,3.43
2023-04-09T04:44:01.704Z,3.37
2023-04-09T04:46:28.185Z,3.00
2023-04-09T04:48:54.845Z,3.10
2023-04-09T04:51:21.460Z,3.00
2023-04-09T04:53:47.926Z,3.07
2023-04-09T04:56:15.635Z,3.20
2023-04-09T04:58:42.841Z,3.00
2023-04-09T05:01:09.448Z,2.57
2023-04-09T05:03:36.072Z,2.87
2023-04-09T05:06:04.072Z,3.00
2023-04-09T05:08:30.950Z,3.60
2023-04-09T05:10:57.511Z,3.17
2023-04-09T05:13:24.274Z,3.60
2023-04-09T05:15:50.882Z,3.30
2023-04-09T05:18:17.661Z,4.10
2023-04-09T05:20:44.257Z,3.40
2023-04-09T05:23:10.811Z,3.40
2023-04-09T05:25:37.316Z,3.43
2023-04-09T05:28:06.658Z,4.10
2023-04-09T05:30:36.510Z,3.80
2023-04-09T05:33:04.543Z,3.57
2023-04-09T05:35:31.109Z,3.77
2023-04-09T05:37:57.626Z,3.47
2023-04-09T05:40:24.229Z,3.47
2023-04-09T05:42:50.728Z,3.50
2023-04-09T05:45:17.287Z,3.37
2023-04-09T05:47:43.828Z,4.00
2023-04-09T05:50:11.515Z,3.70
2023-04-09T05:52:37.957Z,4.00
2023-04-09T05:55:09.771Z,4.03
2023-04-09T05:57:36.565Z,4.20
2023-04-09T06:00:06.553Z,3.70
2023-04-09T06:02:36.057Z,3.63
2023-04-09T06:05:06.095Z,3.57
2023-04-09T06:07:34.493Z,3.60
2023-04-09T06:10:04.718Z,4.33
2023-04-09T06:12:31.155Z,3.80
2023-04-09T06:14:57.608Z,3.90
2023-04-09T06:17:24.060Z,3.77
2023-04-09T06:19:50.580Z,3.27
2023-04-09T06:22:17.077Z,3.53
2023-04-09T06:24:43.574Z,3.53
2023-04-09T06:27:10.040Z,2.60
2023-04-09T06:29:36.456Z,3.00
2023-04-09T06:32:05.857Z,3.07
2023-04-09T06:34:34.377Z,3.27
2023-04-09T06:37:00.794Z,3.20
2023-04-09T06:39:27.927Z,3.03
2023-04-09T06:41:54.460Z,3.60
2023-04-09T06:44:21.795Z,3.00
2023-04-09T06:46:48.279Z,3.00
2023-04-09T06:49:15.108Z,3.03
2023-04-09T06:51:41.917Z,2.80
2023-04-09T06:54:08.802Z,2.53
2023-04-09T06:56:35.631Z,3.15
2023-04-09T06:59:03.771Z,2.85
2023-04-09T07:01:30.829Z,2.83
2023-04-09T07:03:57.799Z,3.53
2023-04-09T07:06:24.589Z,3.33
2023-04-09T07:08:51.375Z,3.00
2023-04-09T07:11:17.958Z,2.90
2023-04-09T07:13:44.430Z,3.30
2023-04-09T07:16:11.108Z,2.70
2023-04-09T07:18:37.676Z,3.42
2023-04-09T07:21:07.012Z,2.78
2023-04-09T07:23:37.182Z,2.70
2023-04-09T07:26:06.803Z,2.83
2023-04-09T07:28:36.787Z,3.10
2023-04-09T07:31:06.260Z,2.33
2023-04-09T07:33:36.599Z,2.50
2023-04-09T07:36:06.685Z,2.17
2023-04-09T07:38:37.077Z,2.63
2023-04-09T07:41:06.582Z,2.45
2023-04-09T07:43:34.657Z,2.55
2023-04-09T07:46:01.443Z,2.38
2023-04-09T07:48:29.454Z,2.55
2023-04-09T07:50:56.929Z,3.17
2023-04-09T07:53:23.441Z,2.95
2023-04-09T07:55:53.015Z,2.75
2023-04-09T07:58:19.501Z,2.75
2023-04-09T08:00:46.245Z,2.22
2023-04-09T08:03:14.083Z,2.30
2023-04-09T08:05:41.251Z,2.00
2023-04-09T08:08:08.006Z,2.85
2023-04-09T08:10:35.688Z,2.20
2023-04-09T08:13:05.039Z,3.13
2023-04-09T08:15:37.206Z,2.63
2023-04-09T08:18:07.233Z,2.40
2023-04-09T08:20:37.064Z,2.30
2023-04-09T08:23:04.957Z,2.30
2023-04-09T08:25:34.034Z,2.42
2023-04-09T08:28:00.488Z,2.65
2023-04-09T08:30:27.253Z,2.30
2023-04-09T08:32:53.800Z,2.38
2023-04-09T08:35:20.493Z,2.63
2023-04-09T08:37:47.212Z,2.70
2023-04-09T08:40:13.787Z,2.17
2023-04-09T08:42:46.008Z,2.53
2023-04-09T08:45:13.522Z,2.10
2023-04-09T08:47:43.018Z,2.47
2023-04-09T08:50:10.026Z,3.30
2023-04-09T08:52:37.687Z,2.38
2023-04-09T08:55:05.218Z,2.63
2023-04-09T08:57:38.368Z,2.75
2023-04-09T09:00:06.013Z,2.47
2023-04-09T09:02:36.479Z,2.55
2023-04-09T09:05:04.867Z,2.47
2023-04-09T09:07:34.809Z,2.75
2023-04-09T09:10:04.984Z,2.40
2023-04-09T09:12:39.685Z,2.83
2023-04-09T09:15:26.301Z,2.42
2023-04-09T09:17:58.397Z,2.60
2023-04-09T09:20:27.323Z,3.40
2023-04-09T09:22:56.953Z,3.00
2023-04-09T09:25:26.272Z,2.67
2023-04-09T09:27:54.692Z,2.42
2023-04-09T09:30:27.594Z,3.40
2023-04-09T09:33:04.605Z,3.42
2023-04-09T09:35:31.294Z,2.85
2023-04-09T09:38:04.461Z,4.10
2023-04-09T09:40:30.990Z,4.85
2023-04-09T09:42:58.009Z,3.72
2023-04-09T09:45:26.114Z,4.20
2023-04-09T09:50:25.260Z,5.03
2023-04-09T09:52:58.926Z,5.32
2023-04-09T09:55:30.931Z,5.35
2023-04-09T09:58:00.666Z,2.70
2023-04-09T10:00:28.853Z,4.90
2023-04-09T10:03:12.169Z,4.72
2023-04-09T10:05:40.974Z,4.00
2023-04-09T10:08:07.982Z,4.93
2023-04-09T10:10:36.519Z,4.55
2023-04-09T10:13:05.364Z,4.82
2023-04-09T10:15:35.385Z,4.53
2023-04-09T10:18:02.031Z,4.82
2023-04-09T10:20:35.708Z,4.47
2023-04-09T10:23:09.623Z,4.63
2023-04-09T10:25:36.176Z,4.40
2023-04-09T10:28:05.716Z,3.78
2023-04-09T10:30:36.580Z,4.55
2023-04-09T10:33:17.087Z,3.85
2023-04-09T10:35:46.917Z,4.63
2023-04-09T10:38:15.149Z,3.90
2023-04-09T10:40:47.381Z,4.10
2023-04-09T10:43:14.511Z,4.13
2023-04-09T10:45:42.078Z,4.30
2023-04-09T10:48:13.705Z,4.20
2023-04-09T10:50:44.237Z,4.18
2023-04-09T10:53:26.437Z,4.35
2023-04-09T10:55:54.110Z,4.07
2023-04-09T10:58:20.641Z,4.20
2023-04-09T11:00:48.613Z,4.13
2023-04-09T11:03:25.295Z,3.80
2023-04-09T11:05:52.703Z,3.90
2023-04-09T11:08:19.586Z,4.10
2023-04-09T11:10:49.041Z,3.80
2023-04-09T11:13:18.627Z,3.70
2023-04-09T11:15:46.107Z,3.95
2023-04-09T11:18:20.253Z,3.85
2023-04-09T11:20:47.073Z,4.22
2023-04-09T11:23:14.079Z,3.72
2023-04-09T11:25:40.699Z,4.07
2023-04-09T11:28:08.427Z,3.92
2023-04-09T11:30:38.629Z,4.05
2023-04-09T11:33:10.772Z,3.58
2023-04-09T11:35:37.521Z,4.15
2023-04-09T11:38:11.523Z,4.03
2023-04-09T11:40:47.695Z,4.13
2023-04-09T11:43:16.613Z,4.70
2023-04-09T11:45:44.324Z,4.13
2023-04-09T11:48:11.558Z,3.83
2023-04-09T11:50:38.137Z,3.53
2023-04-09T11:53:21.157Z,3.90
2023-04-09T11:55:52.466Z,4.47
2023-04-09T11:58:22.608Z,4.35
2023-04-09T12:00:49.169Z,4.00
2023-04-09T12:03:16.715Z,4.25
2023-04-09T12:05:50.948Z,4.40
2023-04-09T12:08:23.870Z,4.40
2023-04-09T12:10:53.375Z,4.63
2023-04-09T12:13:21.219Z,4.22
2023-04-09T12:15:49.746Z,4.45
2023-04-09T12:18:16.483Z,4.53
2023-04-09T12:20:44.524Z,4.22
2023-04-09T12:23:12.437Z,4.03
2023-04-09T12:25:41.108Z,4.32
2023-04-09T12:28:09.297Z,4.38
2023-04-09T12:30:38.809Z,3.92
2023-04-09T12:33:07.616Z,4.28
2023-04-09T12:35:36.814Z,3.95
2023-04-09T12:38:07.096Z,4.10
2023-04-09T12:40:36.946Z,4.15
2023-04-09T12:43:03.531Z,3.50
2023-04-09T12:45:30.826Z,3.70
2023-04-09T12:47:58.011Z,3.53
2023-04-09T12:50:24.652Z,3.67
2023-04-09T12:52:51.181Z,3.55
2023-04-09T12:55:17.672Z,3.95
2023-04-09T12:57:47.145Z,3.53
2023-04-09T13:00:14.338Z,3.28
2023-04-09T13:02:41.525Z,2.88
2023-04-09T13:05:11.366Z,2.78
2023-04-09T13:07:42.920Z,2.90
2023-04-09T13:10:10.274Z,2.80
2023-04-09T13:12:36.731Z,3.10
2023-04-09T13:15:03.467Z,2.85
2023-04-09T13:17:29.990Z,2.85
2023-04-09T13:19:56.571Z,2.90
2023-04-09T13:22:23.100Z,2.97
2023-04-09T13:24:49.568Z,2.72
2023-04-09T13:27:16.640Z,2.80
2023-04-09T13:29:43.212Z,2.75
2023-04-09T13:32:12.376Z,2.90
2023-04-09T13:34:42.029Z,3.10
2023-04-09T13:37:11.416Z,3.13
2023-04-09T13:39:41.219Z,2.85
2023-04-09T13:42:14.190Z,3.00
2023-04-09T13:44:42.425Z,2.70
2023-04-09T13:47:13.497Z,2.53
2023-04-09T13:49:40.726Z,2.72
2023-04-09T13:52:11.062Z,2.78
2023-04-09T13:54:40.580Z,2.60
2023-04-09T13:57:09.092Z,2.58
2023-04-09T13:59:36.111Z,2.70
2023-04-09T14:02:02.695Z,2.75
2023-04-09T14:04:29.362Z,2.78
2023-04-09T14:06:57.207Z,2.83
2023-04-09T14:09:23.670Z,3.17
2023-04-09T14:11:50.974Z,2.92
2023-04-09T14:14:18.089Z,2.65
2023-04-09T14:16:44.550Z,2.80
2023-04-09T14:19:11.110Z,2.70
2023-04-09T14:21:38.969Z,2.70
2023-04-09T14:24:05.966Z,2.88
2023-04-09T14:26:32.444Z,7.82
2023-04-09T14:28:59.053Z,5.85
2023-04-09T14:31:26.043Z,3.92
2023-04-09T14:33:52.559Z,2.65
2023-04-09T14:36:19.118Z,2.67
2023-04-09T14:38:46.083Z,2.67
2023-04-09T14:41:12.694Z,3.00
2023-04-09T14:43:42.261Z,2.60
2023-04-09T14:46:12.166Z,2.83
2023-04-09T14:48:41.566Z,2.53
2023-04-09T14:51:11.317Z,2.40
2023-04-09T14:53:43.076Z,2.30
2023-04-09T14:56:09.570Z,2.28
2023-04-09T14:58:37.998Z,2.85
2023-04-09T15:01:04.893Z,2.58
2023-04-09T15:03:31.924Z,2.60
2023-04-09T15:05:59.565Z,2.47
2023-04-09T15:08:28.431Z,2.50
2023-04-09T15:10:55.058Z,2.45
2023-04-09T15:13:21.799Z,2.70
2023-04-09T15:15:48.506Z,2.67
2023-04-09T15:18:15.620Z,2.60
2023-04-09T15:20:43.445Z,2.83
2023-04-09T15:23:10.726Z,2.70
2023-04-09T15:25:38.374Z,2.45
2023-04-09T15:28:05.927Z,2.80
2023-04-09T15:30:32.445Z,2.78
2023-04-09T15:32:58.995Z,2.92
2023-04-09T15:35:29.082Z,2.83
2023-04-09T15:37:56.874Z,2.90
2023-04-09T15:40:23.362Z,2.70
2023-04-09T15:42:49.817Z,2.70
2023-04-09T15:45:17.108Z,2.80
2023-04-09T15:47:44.602Z,3.00
2023-04-09T15:50:11.276Z,2.58
2023-04-09T15:52:40.747Z,3.03
2023-04-09T15:55:10.332Z,2.78
2023-04-09T15:57:40.129Z,2.90
2023-04-09T16:00:10.613Z,2.80
2023-04-09T16:02:39.485Z,2.92
2023-04-09T16:05:09.155Z,2.83
2023-04-09T16:07:35.649Z,2.70
2023-04-09T16:10:02.560Z,2.78
2023-04-09T16:12:29.112Z,2.65
2023-04-09T16:14:55.593Z,2.53
2023-04-09T16:17:22.090Z,2.70
2023-04-09T16:19:48.598Z,2.53
2023-04-09T16:22:15.049Z,2.50
2023-04-09T16:24:41.568Z,3.10
2023-04-09T16:27:13.023Z,2.58
2023-04-09T16:29:39.873Z,2.80
2023-04-09T16:32:08.888Z,2.75
2023-04-09T16:34:35.859Z,2.60
2023-04-09T16:37:02.471Z,2.80
2023-04-09T16:39:29.556Z,2.80
2023-04-09T16:41:58.274Z,2.90
2023-04-09T16:44:25.413Z,3.15
2023-04-09T16:46:52.003Z,3.13
2023-04-09T16:49:18.566Z,3.10
2023-04-09T16:51:46.098Z,3.03
2023-04-09T16:54:13.321Z,2.80
2023-04-09T16:56:42.540Z,2.90
2023-04-09T16:59:12.151Z,3.28
2023-04-09T17:01:41.764Z,2.75
2023-04-09T17:04:10.949Z,3.10
2023-04-09T17:07:08.790Z,2.88
2023-04-09T17:09:35.920Z,3.00
2023-04-09T17:12:02.565Z,3.05
2023-04-09T17:14:33.899Z,3.17
2023-04-09T17:17:00.784Z,3.20
2023-04-09T17:19:27.347Z,2.90
2023-04-09T17:21:53.915Z,2.90
2023-04-09T17:24:20.375Z,2.67
2023-04-09T17:26:46.836Z,3.33
2023-04-09T17:29:13.730Z,3.13
2023-04-09T17:31:40.294Z,3.13
2023-04-09T17:34:09.024Z,2.97
2023-04-09T17:36:35.545Z,3.05
2023-04-09T17:39:02.477Z,3.00
2023-04-09T17:41:29.021Z,3.05
2023-04-09T17:43:55.524Z,3.10
2023-04-09T17:46:22.195Z,2.80
2023-04-09T17:48:48.781Z,3.40
2023-04-09T17:51:20.024Z,3.05
2023-04-09T17:53:47.388Z,3.40
2023-04-09T17:56:18.062Z,3.47
2023-04-09T17:58:45.063Z,3.15
2023-04-09T18:01:13.387Z,3.47
2023-04-09T18:03:45.515Z,3.63
2023-04-09T18:06:12.541Z,1.92
2023-04-09T18:08:43.335Z,1.75
2023-04-09T18:11:15.453Z,2.63
2023-04-09T18:13:42.012Z,2.00
2023-04-09T18:16:12.510Z,1.70
2023-04-09T18:18:42.070Z,2.78
2023-04-09T18:21:11.678Z,1.80
2023-04-09T18:23:41.279Z,2.30
2023-04-09T18:26:11.494Z,2.88
2023-04-09T18:28:40.310Z,2.75
2023-04-09T18:31:09.491Z,2.35
2023-04-09T18:33:36.465Z,2.80
2023-04-09T18:36:03.382Z,2.80
2023-04-09T18:38:30.516Z,2.28
2023-04-09T18:40:57.752Z,1.90
2023-04-09T18:43:26.056Z,1.77
2023-04-09T18:45:52.731Z,1.67
2023-04-09T18:48:19.421Z,1.60
2023-04-09T18:50:46.122Z,1.67
2023-04-09T18:53:12.720Z,1.80
2023-04-09T18:55:42.292Z,1.48
2023-04-09T18:58:14.918Z,2.00
2023-04-09T19:00:42.294Z,2.15
2023-04-09T19:03:11.141Z,2.00
2023-04-09T19:05:40.034Z,1.58
2023-04-09T19:08:10.646Z,1.77
2023-04-09T19:10:37.366Z,1.50
2023-04-09T19:13:03.858Z,1.38
2023-04-09T19:15:30.437Z,1.73
2023-04-09T19:17:57.393Z,1.63
2023-04-09T19:20:23.924Z,1.60
2023-04-09T19:26:50.821Z,1.90
2023-04-09T19:29:49.722Z,1.95
2023-04-09T19:32:18.834Z,2.20
2023-04-09T19:35:51.667Z,7.95
2023-04-09T19:38:18.684Z,6.53
2023-04-09T19:40:45.893Z,6.18
2023-04-09T19:43:12.618Z,6.30
2023-04-09T19:45:45.336Z,5.75
2023-04-09T19:48:12.703Z,4.47
2023-04-09T19:50:43.437Z,4.28
2023-04-09T19:53:12.860Z,3.90
2023-04-09T19:55:40.934Z,4.47
2023-04-09T19:58:10.173Z,3.80
2023-04-09T20:00:36.691Z,3.45
2023-04-09T20:03:05.781Z,2.95
2023-04-09T20:05:32.713Z,3.28
2023-04-09T20:07:59.398Z,2.95
2023-04-09T20:10:25.871Z,3.83
2023-04-09T20:12:52.409Z,3.92
2023-04-09T20:15:21.961Z,3.75
2023-04-09T20:17:49.658Z,2.15
2023-04-09T20:20:20.177Z,2.83
2023-04-09T20:22:55.585Z,3.25
2023-04-09T20:25:23.183Z,2.20
2023-04-09T20:27:52.353Z,2.28
2023-04-09T20:30:18.893Z,2.58
2023-04-09T20:32:45.395Z,1.92
2023-04-09T20:35:13.567Z,2.25
2023-04-09T20:37:43.189Z,2.38
2023-04-09T20:40:12.695Z,2.00
2023-04-09T20:42:41.280Z,2.22
2023-04-09T20:45:11.597Z,1.85
2023-04-09T20:47:39.426Z,1.70
2023-04-09T20:50:06.554Z,1.80
2023-04-09T20:52:33.046Z,1.70
2023-04-09T20:54:59.638Z,1.60
2023-04-09T20:57:26.101Z,1.90
2023-04-09T20:59:55.197Z,2.83
2023-04-09T21:02:22.340Z,2.67
2023-04-09T21:04:48.951Z,2.38
2023-04-09T21:07:15.698Z,2.50
2023-04-09T21:09:42.157Z,2.45
2023-04-09T21:12:13.004Z,2.35
2023-04-09T21:16:54.704Z,2.40
2023-04-09T21:18:08.887Z,3.00
2023-04-09T21:20:35.521Z,2.58
2023-04-09T21:23:01.978Z,2.45
2023-04-09T21:25:29.527Z,3.00
2023-04-09T21:27:56.295Z,2.17
2023-04-09T21:30:23.017Z,2.08
2023-04-09T21:32:49.460Z,1.95
2023-04-09T21:35:16.345Z,2.50
2023-04-09T21:37:46.444Z,2.78
2023-04-09T21:40:17.867Z,2.70
2023-04-09T21:42:44.406Z,2.78
2023-04-09T21:45:13.177Z,3.13
2023-04-09T21:47:40.033Z,2.78
2023-04-09T21:50:07.331Z,3.03
2023-04-09T21:52:34.410Z,2.67
2023-04-09T21:55:00.924Z,2.60
2023-04-09T21:57:27.443Z,2.15
2023-04-09T21:59:53.862Z,2.40
2023-04-09T22:02:20.568Z,2.08
2023-04-09T22:04:47.119Z,2.30
2023-04-09T22:07:13.697Z,2.00
2023-04-09T22:09:40.385Z,1.95
2023-04-09T22:12:07.254Z,2.33
2023-04-09T22:14:33.809Z,2.60
2023-04-09T22:17:01.761Z,2.05
2023-04-09T22:19:30.087Z,2.17
2023-04-09T22:21:57.246Z,2.33
2023-04-09T22:24:26.882Z,2.00
2023-04-09T22:26:53.624Z,1.80
2023-04-09T22:29:20.185Z,2.33
2023-04-09T22:31:46.698Z,2.10
2023-04-09T22:34:20.821Z,2.38
2023-04-09T22:36:48.279Z,2.40
2023-04-09T22:39:15.493Z,2.13
2023-04-09T22:41:41.957Z,2.08
2023-04-09T22:44:09.653Z,2.60
2023-04-09T22:46:36.601Z,2.47
2023-04-09T22:49:05.627Z,2.10
2023-04-09T22:51:34.759Z,2.28
2023-04-09T22:54:02.187Z,2.22
2023-04-09T22:56:30.123Z,2.08
2023-04-09T22:58:56.549Z,2.20
2023-04-09T23:01:23.253Z,2.33
2023-04-09T23:03:50.742Z,2.05
2023-04-09T23:06:17.324Z,2.83
2023-04-09T23:08:44.380Z,2.25
2023-04-09T23:11:11.321Z,2.38
2023-04-09T23:13:38.540Z,2.65
2023-04-09T23:16:08.926Z,2.20
2023-04-09T23:18:36.353Z,2.30
2023-04-09T23:21:12.505Z,2.40
2023-04-09T23:23:39.158Z,2.40
2023-04-09T23:26:06.172Z,2.33
2023-04-09T23:28:32.926Z,2.10
2023-04-09T23:30:59.640Z,2.40
2023-04-09T23:33:26.236Z,3.03
2023-04-09T23:35:52.854Z,2.88
2023-04-09T23:38:22.411Z,3.22
2023-04-09T23:40:51.938Z,2.38
2023-04-09T23:43:21.655Z,2.50
2023-04-09T23:45:50.407Z,2.65
2023-04-09T23:48:16.914Z,2.45
2023-04-09T23:50:43.373Z,1.92
2023-04-09T23:53:09.890Z,2.17
2023-04-09T23:55:41.395Z,2.42
2023-04-09T23:58:08.272Z,3.40
